Ana Sayfa
METAR-TAF:

METAR-TAF

Havaalanları :

Virginia Highlands Airport

Abingdon, Virginia, Amerika Birleşik Devletleri

Enlem: 36-41N, Boylam: 082-02W, yükseklik: 631 m

Güncel hava durumu gözlemi

Rapor saat 06:35 UTC de 11 dakika önce yapıldı.
Rüzgar kuzeydoğudan 3 kt
Sıcaklık 19°C
Nem 88%
Basınç 1024 hPa
Görüş mesafesi: 16.1 km
4400 ft yükseklikte parçalı çok bulutlu
5000 ft yükseklikte parçalı çok bulutlu

METAR: KVJI 230635Z AUTO 05003KT 10SM BKN044 BKN050 19/17 A3023 RMK AO2 T01910170

Saat: 02:46 (06:46 UTC)


TAF: eksik

4.000'den fazla havaalanı için hava durumu gözlemleri ve tahminleri (METAR ve TAF raporları).

Kullanılabilir istasyonlar harita üzerinde sarı ve kırmızı noktalarla gösterilir.

İstasyonun adını görmek için fareyi noktanın üzerinde gezdirin.

Sonrasında hava gözlem ve tahminlerini görmek için tıklayın.

Haritayı değiştirmek için: yaklaştırmak için siyah artı işaretli yeşil düğmeye ve uzaklaştırmak için de eksi işaretli düğmeye hızla tıklayın; bitişik haritalar için yeşil okları kullanın.


METAR-TAF: